North Star State — WDD7423 — position and weather

sailwx.info

Track history (hours):
 
Tides and Currents Weather Stations Pressure Air Temp Water Temp Dewpoint Dewpoint Depression Visibility Wind Speed Wind Dir Waves Ship Positions

North Star State

Owner: Great Lakes Dredge & Dock Company, LLC., Oak Brook, IL. More information available from US FCC via Universal Licensing System and Coast Guard Vessel Documentation Center.

Last reported at 2018-Apr-26 08:22 UTC. Time now 2018-Apr-26 11:28 UTC.
Position N 36°57' W 076°20'.

MMSI: 367186210.

Date/timePositionNaut miles runAvg speedWind from/ knotsBaromVisibWave heightAir tempDewpointWater temp
2018-Apr-26 08:22N 36°57' W 076°20'4 3.4
2018-Apr-26 07:16N 36°53' W 076°20'1 3.7
2018-Apr-26 06:59N 36°52' W 076°19'2 3.2
2018-Apr-26 06:30N 36°51' W 076°18'1 2.7
2018-Apr-26 06:00N 36°50' W 076°16'0 0.6
2018-Apr-26 05:30N 36°50' W 076°16'0 0.0
2018-Apr-26 04:25N 36°50' W 076°16'0 0.0
2018-Apr-26 04:00N 36°50' W 076°16'1 2.2
2018-Apr-26 03:30N 36°50' W 076°17'0 0.1
2018-Apr-26 03:00N 36°50' W 076°17'0 0.0
2018-Apr-26 01:58N 36°50' W 076°17'0 0.0
2018-Apr-25 23:54N 36°50' W 076°17'0 0.0
2018-Apr-25 23:14N 36°50' W 076°17'2 7.0
2018-Apr-25 23:00N 36°51' W 076°19'10 3.7
2018-Apr-25 20:17N 36°56' W 076°07'11 2.3
2018-Apr-25 15:33N 36°53' W 076°20'2 5.4
2018-Apr-25 15:13N 36°51' W 076°18'1 3.5
2018-Apr-25 15:00N 36°51' W 076°18'2 4.7
2018-Apr-25 14:31N 36°48' W 076°17'2 3.6
2018-Apr-25 14:00N 36°47' W 076°18'1 1.1
2018-Apr-25 13:30N 36°46' W 076°18'1 2.1
2018-Apr-25 13:01N 36°47' W 076°18'3 6.3
2018-Apr-25 12:30N 36°50' W 076°18'0 0.2
2018-Apr-25 12:00N 36°50' W 076°17'0 0.0
2018-Apr-25 11:30N 36°50' W 076°17'0 0.0
2018-Apr-25 11:00N 36°50' W 076°17'0 0.0
2018-Apr-25 10:30N 36°50' W 076°17'0 0.0
2018-Apr-25 10:00N 36°50' W 076°17'0 0.0
2018-Apr-25 09:30N 36°50' W 076°17'0 0.0
2018-Apr-25 09:00N 36°50' W 076°17'0 0.0
2018-Apr-25 08:31N 36°50' W 076°17'0 0.0
2018-Apr-25 08:00N 36°50' W 076°17'0 0.0
2018-Apr-25 07:30N 36°50' W 076°17'0 0.0
2018-Apr-25 07:01N 36°50' W 076°17'0 0.0
2018-Apr-25 06:30N 36°50' W 076°17'0 0.0
2018-Apr-25 06:00N 36°50' W 076°17'0 0.0
2018-Apr-25 05:30N 36°50' W 076°17'0 0.0
2018-Apr-25 05:00N 36°50' W 076°17'0 0.0
2018-Apr-25 04:31N 36°50' W 076°17'0 0.0
2018-Apr-25 04:00N 36°50' W 076°17'0 0.0
2018-Apr-25 03:30N 36°50' W 076°17'0 0.0
2018-Apr-25 03:00N 36°50' W 076°17'0 0.0
2018-Apr-25 02:30N 36°50' W 076°17'0 0.0
2018-Apr-25 02:00N 36°50' W 076°17'0 0.0
2018-Apr-25 01:30N 36°50' W 076°17'0 0.0
2018-Apr-25 01:00N 36°50' W 076°17'0 0.0
2018-Apr-25 00:31N 36°50' W 076°17'0 0.0
2018-Apr-25 00:00N 36°50' W 076°17'0 0.0
2018-Apr-24 23:30N 36°50' W 076°17'0 0.0
2018-Apr-24 23:00N 36°50' W 076°17'0 0.0
2018-Apr-24 22:31N 36°50' W 076°17'0 0.0
2018-Apr-24 22:00N 36°50' W 076°17'0 0.0
2018-Apr-24 21:30N 36°50' W 076°17'0 0.0
2018-Apr-24 21:01N 36°50' W 076°17'0 0.0
2018-Apr-24 20:31N 36°50' W 076°17'0 0.0
2018-Apr-24 20:00N 36°50' W 076°17'0 0.0
2018-Apr-24 19:30N 36°50' W 076°17'0 0.0
2018-Apr-24 19:00N 36°50' W 076°17'0 0.0
2018-Apr-24 18:30N 36°50' W 076°17'0 0.0
2018-Apr-24 18:00N 36°50' W 076°17'0 0.0
2018-Apr-24 17:30N 36°50' W 076°17'0 0.0
2018-Apr-24 17:00N 36°50' W 076°17'0 0.0
2018-Apr-24 16:30N 36°50' W 076°17'0 0.0
2018-Apr-24 16:00N 36°50' W 076°17'0 0.0
2018-Apr-24 15:30N 36°50' W 076°17'0 0.0
2018-Apr-24 15:00N 36°50' W 076°17'0 0.0
2018-Apr-24 14:30N 36°50' W 076°17'0 0.0
2018-Apr-24 14:01N 36°50' W 076°17'0 0.0
2018-Apr-24 13:31N 36°50' W 076°17'0 0.0
2018-Apr-24 13:00N 36°50' W 076°17'0 0.0
2018-Apr-24 12:30N 36°50' W 076°17'0 0.0
2018-Apr-24 12:00N 36°50' W 076°17'0 0.0
2018-Apr-24 11:30N 36°50' W 076°17'0 0.0
2018-Apr-24 11:00N 36°50' W 076°17'0 0.0
2018-Apr-24 10:30N 36°50' W 076°17'0 0.0
2018-Apr-24 10:00N 36°50' W 076°17'0 0.0
2018-Apr-24 09:30N 36°50' W 076°17'0 0.0
2018-Apr-24 09:01N 36°50' W 076°17'0 0.0
2018-Apr-24 08:31N 36°50' W 076°17'0 0.0
2018-Apr-24 08:00N 36°50' W 076°17'0 0.0
2018-Apr-24 07:30N 36°50' W 076°17'0 0.0
2018-Apr-24 07:00N 36°50' W 076°17'0 0.0
2018-Apr-24 06:30N 36°50' W 076°17'0 0.0
2018-Apr-24 06:00N 36°50' W 076°17'0 0.0
2018-Apr-24 05:30N 36°50' W 076°17'0 0.0
2018-Apr-24 05:00N 36°50' W 076°17'0 0.0
2018-Apr-24 04:30N 36°50' W 076°17'0 0.0
2018-Apr-24 04:00N 36°50' W 076°17'0 0.0
2018-Apr-24 03:31N 36°50' W 076°17'0 0.0
2018-Apr-24 03:00N 36°50' W 076°17'0 0.0
2018-Apr-24 02:30N 36°50' W 076°17'0 0.0
2018-Apr-24 02:01N 36°50' W 076°17'0 0.0
2018-Apr-24 01:30N 36°50' W 076°17'0 0.0
2018-Apr-24 01:00N 36°50' W 076°17'0 0.0
2018-Apr-24 00:30N 36°50' W 076°17'0 0.0
2018-Apr-24 00:00N 36°50' W 076°17'0 0.0
2018-Apr-23 23:30N 36°50' W 076°17'0 0.0
2018-Apr-23 23:01N 36°50' W 076°17'0 0.0
2018-Apr-23 22:30N 36°50' W 076°17'0 0.0
2018-Apr-23 22:00N 36°50' W 076°17'0 0.0
2018-Apr-23 21:30N 36°50' W 076°17'0 0.0
2018-Apr-23 21:00N 36°50' W 076°17'0 0.0
2018-Apr-23 20:30N 36°50' W 076°17'0 0.0
2018-Apr-23 20:00N 36°50' W 076°17'0 0.0
2018-Apr-23 19:30N 36°50' W 076°17'0 0.0
2018-Apr-23 19:00N 36°50' W 076°17'0 0.0
2018-Apr-23 18:30N 36°50' W 076°17'0 0.0
2018-Apr-23 18:00N 36°50' W 076°17'0 0.0
2018-Apr-23 17:30N 36°50' W 076°17'0 0.0
2018-Apr-23 17:00N 36°50' W 076°17'0 0.0
2018-Apr-23 16:30N 36°50' W 076°17'0 0.0
2018-Apr-23 16:00N 36°50' W 076°17'0 0.0
2018-Apr-23 15:30N 36°50' W 076°17'0 0.0
2018-Apr-23 14:59N 36°50' W 076°17'0 0.0
2018-Apr-23 14:26N 36°50' W 076°17'0 0.0
2018-Apr-23 14:00N 36°50' W 076°17'0 0.0
2018-Apr-23 13:30N 36°50' W 076°17'0 0.0
2018-Apr-23 13:00N 36°50' W 076°17'0 0.0
2018-Apr-23 12:31N 36°50' W 076°17'0 0.0
2018-Apr-23 12:00N 36°50' W 076°17'0 0.0
2018-Apr-23 11:30N 36°50' W 076°17'0 0.0
2018-Apr-23 11:00N 36°50' W 076°17'0 0.0
2018-Apr-23 10:30N 36°50' W 076°17'0 0.0
2018-Apr-23 10:00N 36°50' W 076°17'0 0.0
2018-Apr-23 09:30N 36°50' W 076°17'0 0.0
2018-Apr-23 09:00N 36°50' W 076°17'0 0.0
2018-Apr-23 08:30N 36°50' W 076°17'0 0.0
2018-Apr-23 08:00N 36°50' W 076°17'0 0.0
2018-Apr-23 07:30N 36°50' W 076°17'0 0.0
2018-Apr-23 07:00N 36°50' W 076°17'0 0.0
2018-Apr-23 06:30N 36°50' W 076°17'0 0.0
2018-Apr-23 06:01N 36°50' W 076°17'0 0.0
2018-Apr-23 05:30N 36°50' W 076°17'0 0.0
2018-Apr-23 05:00N 36°50' W 076°17'0 0.0
2018-Apr-23 04:30N 36°50' W 076°17'0 0.0
2018-Apr-23 04:00N 36°50' W 076°17'0 0.0
2018-Apr-23 03:29N 36°50' W 076°17'0 0.0
2018-Apr-23 00:27N 36°50' W 076°17'0 0.0
2018-Apr-23 00:00N 36°50' W 076°17'0 0.0
2018-Apr-22 23:30N 36°50' W 076°17'0 0.0
2018-Apr-22 23:01N 36°50' W 076°17'0 0.0
2018-Apr-22 22:30N 36°50' W 076°17'0 0.0
2018-Apr-22 22:01N 36°50' W 076°17'0 0.0
2018-Apr-22 21:30N 36°50' W 076°17'0 0.0
2018-Apr-22 21:00N 36°50' W 076°17'0 0.0
2018-Apr-22 20:29N 36°50' W 076°17'0 0.0
2018-Apr-22 19:59N 36°50' W 076°17'0 0.0
2018-Apr-22 19:30N 36°50' W 076°17'0 0.0
2018-Apr-22 19:00N 36°50' W 076°17'0 0.0
2018-Apr-22 18:30N 36°50' W 076°17'0 0.0
2018-Apr-22 18:00N 36°50' W 076°17'0 0.0
2018-Apr-22 17:30N 36°50' W 076°17'0 0.0
2018-Apr-22 17:00N 36°50' W 076°17'0 0.0
2018-Apr-22 16:30N 36°50' W 076°17'0 0.0
2018-Apr-22 16:00N 36°50' W 076°17'0 0.0
2018-Apr-22 15:30N 36°50' W 076°17'0 0.0
2018-Apr-22 14:59N 36°50' W 076°17'0 0.0
2018-Apr-22 14:30N 36°50' W 076°17'0 0.0
2018-Apr-22 14:00N 36°50' W 076°17'0 0.0
2018-Apr-22 13:30N 36°50' W 076°17'0 0.0
2018-Apr-22 13:00N 36°50' W 076°17'0 0.0
2018-Apr-22 12:30N 36°50' W 076°17'0 0.0
2018-Apr-22 12:00N 36°50' W 076°17'0 0.0
2018-Apr-22 11:30N 36°50' W 076°17'0 0.0
2018-Apr-22 11:00N 36°50' W 076°17'0 0.0
2018-Apr-22 10:30N 36°50' W 076°17'0 0.0
2018-Apr-22 10:00N 36°50' W 076°17'0 0.0
2018-Apr-22 09:30N 36°50' W 076°17'0 0.0
2018-Apr-22 09:00N 36°50' W 076°17'0 0.0
2018-Apr-22 08:30N 36°50' W 076°17'0 0.0
2018-Apr-22 08:00N 36°50' W 076°17'0 0.0
2018-Apr-22 07:30N 36°50' W 076°17'0 0.0
2018-Apr-22 07:00N 36°50' W 076°17'0 0.0
2018-Apr-22 06:30N 36°50' W 076°17'0 0.0
2018-Apr-22 06:00N 36°50' W 076°17'0 0.0
2018-Apr-22 05:30N 36°50' W 076°17'0 0.0
2018-Apr-22 05:00N 36°50' W 076°17'0 0.0
2018-Apr-22 04:30N 36°50' W 076°17'0 0.0
2018-Apr-22 04:00N 36°50' W 076°17'0 0.0
2018-Apr-22 03:30N 36°50' W 076°17'0 0.0
2018-Apr-22 03:01N 36°50' W 076°17'0 0.0
2018-Apr-22 02:30N 36°50' W 076°17'0 0.0
2018-Apr-22 02:00N 36°50' W 076°17'0 0.0
2018-Apr-22 01:30N 36°50' W 076°17'0 0.0
2018-Apr-22 01:00N 36°50' W 076°17'0 0.0
2018-Apr-22 00:30N 36°50' W 076°17'0 0.0
2018-Apr-22 00:00N 36°50' W 076°17'0 0.0
2018-Apr-21 23:30N 36°50' W 076°17'0 0.0
2018-Apr-21 23:00N 36°50' W 076°17'0 0.0
2018-Apr-21 22:30N 36°50' W 076°17'0 0.0
2018-Apr-21 22:00N 36°50' W 076°17'0 0.0
2018-Apr-21 21:30N 36°50' W 076°17'0 0.0
2018-Apr-21 21:00N 36°50' W 076°17'0 0.0
2018-Apr-21 20:30N 36°50' W 076°17'0 0.0
2018-Apr-21 20:00N 36°50' W 076°17'0 0.0
2018-Apr-21 19:30N 36°50' W 076°17'0 0.0
2018-Apr-21 19:00N 36°50' W 076°17'0 0.0
2018-Apr-21 18:31N 36°50' W 076°17'0 0.0
2018-Apr-21 18:00N 36°50' W 076°17'0 0.0
2018-Apr-21 17:30N 36°50' W 076°17'0 0.0
2018-Apr-21 17:00N 36°50' W 076°17'0 0.0
2018-Apr-21 16:31N 36°50' W 076°17'0 0.0
2018-Apr-21 16:00N 36°50' W 076°17'0 0.0
2018-Apr-21 15:30N 36°50' W 076°17'0 0.0
2018-Apr-21 15:01N 36°50' W 076°17'0 0.0
2018-Apr-21 14:30N 36°50' W 076°17'0 0.0
2018-Apr-21 13:59N 36°50' W 076°17'0 0.0
2018-Apr-21 13:30N 36°50' W 076°17'0 0.0
2018-Apr-21 13:00N 36°50' W 076°17'0 0.0
2018-Apr-21 12:30N 36°50' W 076°17'0 0.0
2018-Apr-21 12:00N 36°50' W 076°17'0 0.0
2018-Apr-21 11:30N 36°50' W 076°17'0 0.0
2018-Apr-21 11:00N 36°50' W 076°17'0 0.0
2018-Apr-21 10:30N 36°50' W 076°17'0 0.0
2018-Apr-21 10:00N 36°50' W 076°17'0 0.0
2018-Apr-21 09:30N 36°50' W 076°17'0 0.0
2018-Apr-21 09:00N 36°50' W 076°17'0 0.0
2018-Apr-21 08:30N 36°50' W 076°17'0 0.0
2018-Apr-21 08:00N 36°50' W 076°17'0 0.0
2018-Apr-21 07:30N 36°50' W 076°17'0 0.0
2018-Apr-21 07:00N 36°50' W 076°17'0 0.0
2018-Apr-21 06:31N 36°50' W 076°17'0 0.0
2018-Apr-21 06:00N 36°50' W 076°17'0 0.0
2018-Apr-21 05:30N 36°50' W 076°17'0 0.0
2018-Apr-21 05:00N 36°50' W 076°17'0 0.0
2018-Apr-21 04:30N 36°50' W 076°17'0 0.0
2018-Apr-21 04:01N 36°50' W 076°17'0 0.0
2018-Apr-21 03:30N 36°50' W 076°17'0 0.0
2018-Apr-21 03:00N 36°50' W 076°17'0 0.0
2018-Apr-21 02:30N 36°50' W 076°17'0 0.0
2018-Apr-21 02:00N 36°50' W 076°17'0 0.0
2018-Apr-21 01:30N 36°50' W 076°17'0 0.0
2018-Apr-21 01:00N 36°50' W 076°17'0 0.0
2018-Apr-21 00:31N 36°50' W 076°17'0 0.0
2018-Apr-21 00:00N 36°50' W 076°17'0 0.0
2018-Apr-20 23:30N 36°50' W 076°17'0 0.0
2018-Apr-20 23:00N 36°50' W 076°17'0 0.0
2018-Apr-20 22:30N 36°50' W 076°17'0 0.0
2018-Apr-20 22:00N 36°50' W 076°17'0 0.0
2018-Apr-20 21:29N 36°50' W 076°17'0 0.0
2018-Apr-20 21:00N 36°50' W 076°17'0 0.0
2018-Apr-20 20:29N 36°50' W 076°17'0 0.0
2018-Apr-20 20:00N 36°50' W 076°17'0 0.0
2018-Apr-20 19:31N 36°50' W 076°17'1 1.5
2018-Apr-20 19:01N 36°50' W 076°17'0 0.1
2018-Apr-20 18:29N 36°50' W 076°17'0 0.2
2018-Apr-20 17:56N 36°50' W 076°16'0 0.4
2018-Apr-20 17:10N 36°51' W 076°16'0 0.1
2018-Apr-20 17:00N 36°51' W 076°16'1 2.3
2018-Apr-20 16:30N 36°50' W 076°17'0 0.0
2018-Apr-20 15:39N 36°50' W 076°17'0 0.0
2018-Apr-20 15:17N 36°50' W 076°17'0 0.0
2018-Apr-20 15:00N 36°50' W 076°17'0 0.0
2018-Apr-20 14:30N 36°50' W 076°17'0 0.0
2018-Apr-20 14:00N 36°50' W 076°17'0 0.0
2018-Apr-20 13:30N 36°50' W 076°17'1 1.1
2018-Apr-20 12:59N 36°50' W 076°17'0 0.5
2018-Apr-20 12:31N 36°50' W 076°17'4 0.1
2018-Apr-19 08:34N 36°53' W 076°20'1 7.6
2018-Apr-19 08:30N 36°53' W 076°20'3 6.6
2018-Apr-19 08:00N 36°50' W 076°17'0 0.0
2018-Apr-19 07:31N 36°50' W 076°17'0 0.0
2018-Apr-19 07:01N 36°50' W 076°17'0 0.0
2018-Apr-19 06:31N 36°50' W 076°17'0 0.0
2018-Apr-19 06:01N 36°50' W 076°17'0 0.0
2018-Apr-19 05:31N 36°50' W 076°17'0 0.0
2018-Apr-19 05:00N 36°50' W 076°17'0 0.0
2018-Apr-19 04:30N 36°50' W 076°17'0 0.0
2018-Apr-19 04:00N 36°50' W 076°17'0 0.0
2018-Apr-19 03:31N 36°50' W 076°17'0 0.0
2018-Apr-19 03:01N 36°50' W 076°17'0 0.0
2018-Apr-19 02:31N 36°50' W 076°17'0 0.0
2018-Apr-19 02:01N 36°50' W 076°17'0 0.0
2018-Apr-19 01:31N 36°50' W 076°17'0 0.0
2018-Apr-19 01:01N 36°50' W 076°17'0 0.0
2018-Apr-19 00:31N 36°50' W 076°17'0 0.0
2018-Apr-19 00:00N 36°50' W 076°17'0 0.0
2018-Apr-18 23:30N 36°50' W 076°17'0 0.0
2018-Apr-18 23:01N 36°50' W 076°17'1 1.6
2018-Apr-18 22:30N 36°51' W 076°18'2 3.7
2018-Apr-18 21:54N 36°53' W 076°20'2 3.6
2018-Apr-18 21:24N 36°51' W 076°18'2 4.1
2018-Apr-18 21:00N 36°50' W 076°18'2 3.1
2018-Apr-18 20:30N 36°48' W 076°17'2 3.1
2018-Apr-18 20:00N 36°47' W 076°18'1 1.9
2018-Apr-18 19:30N 36°46' W 076°18'0 0.4
2018-Apr-18 19:00N 36°46' W 076°18'0 0.5
2018-Apr-18 18:30N 36°46' W 076°18'0 0.3
2018-Apr-18 18:00N 36°46' W 076°18'0 0.0
2018-Apr-18 17:30N 36°46' W 076°18'0 0.0
2018-Apr-18 17:00N 36°46' W 076°18'0 0.1
2018-Apr-18 16:30N 36°46' W 076°18'0 0.2
2018-Apr-18 16:00N 36°46' W 076°18'0 0.0
2018-Apr-18 15:30N 36°46' W 076°18'0 0.7
2018-Apr-18 15:00N 36°46' W 076°18'0 0.7
2018-Apr-18 14:30N 36°46' W 076°18'0 0.2
2018-Apr-18 14:00N 36°46' W 076°18'0 0.0
2018-Apr-18 13:30N 36°46' W 076°18'0 0.0
2018-Apr-18 13:00N 36°46' W 076°18'0 0.0
2018-Apr-18 12:30N 36°46' W 076°18'0 0.1
2018-Apr-18 12:00N 36°46' W 076°18'0 0.3
2018-Apr-18 11:30N 36°46' W 076°18'1 1.6
2018-Apr-18 11:00N 36°45' W 076°18'0 0.0
2018-Apr-18 10:30N 36°45' W 076°18'0 0.0
2018-Apr-18 10:00N 36°45' W 076°18'2 4.1
2018-Apr-18 09:30N 36°47' W 076°18'3 5.8
2018-Apr-18 09:00N 36°50' W 076°18'0 0.2
2018-Apr-18 08:30N 36°50' W 076°17'0 0.0
2018-Apr-18 08:00N 36°50' W 076°17'0 0.0
2018-Apr-18 07:30N 36°50' W 076°17'0 0.0
2018-Apr-18 07:00N 36°50' W 076°17'0 0.0
2018-Apr-18 06:30N 36°50' W 076°17'0 0.0
2018-Apr-18 06:00N 36°50' W 076°17'0 0.0
2018-Apr-18 05:30N 36°50' W 076°17'0 0.0
2018-Apr-18 05:00N 36°50' W 076°17'0 0.0
2018-Apr-18 04:30N 36°50' W 076°17'0 0.0
2018-Apr-18 04:00N 36°50' W 076°17'0 0.0
2018-Apr-18 03:30N 36°50' W 076°17'0 0.0
2018-Apr-18 03:00N 36°50' W 076°17'0 0.0
2018-Apr-18 02:30N 36°50' W 076°17'0 0.0
2018-Apr-18 02:00N 36°50' W 076°17'0 0.0
2018-Apr-18 01:30N 36°50' W 076°17'0 0.0
2018-Apr-18 01:00N 36°50' W 076°17'0 0.0
2018-Apr-18 00:30N 36°50' W 076°17'0 0.0
2018-Apr-18 00:00N 36°50' W 076°17'0 0.0
2018-Apr-17 23:30N 36°50' W 076°17'0 0.0
2018-Apr-17 23:00N 36°50' W 076°17'0 0.0
2018-Apr-17 22:30N 36°50' W 076°17'0 0.0
2018-Apr-17 22:00N 36°50' W 076°17'0 0.0
2018-Apr-17 21:30N 36°50' W 076°17'0 0.0
2018-Apr-17 21:00N 36°50' W 076°17'0 0.0
2018-Apr-17 20:30N 36°50' W 076°17'0 0.0
2018-Apr-17 20:00N 36°50' W 076°17'0 0.0
2018-Apr-17 19:30N 36°50' W 076°17'0 0.0
2018-Apr-17 19:00N 36°50' W 076°17'0 0.5
2018-Apr-17 18:30N 36°50' W 076°18'1 2.4
2018-Apr-17 17:59N 36°50' W 076°16'0 0.9
2018-Apr-17 17:30N 36°50' W 076°17'1 1.6
2018-Apr-17 17:00N 36°50' W 076°18'1 2.9
2018-Apr-17 16:30N 36°49' W 076°17'1 2.9
2018-Apr-17 16:00N 36°48' W 076°18'1 2.0
2018-Apr-17 15:30N 36°47' W 076°18'1 1.2
2018-Apr-17 15:00N 36°46' W 076°18'0 0.6
2018-Apr-17 14:30N 36°46' W 076°18'0 0.0
2018-Apr-17 14:00N 36°46' W 076°18'1 1.7
2018-Apr-17 13:30N 36°47' W 076°18'2 3.6
2018-Apr-17 13:00N 36°48' W 076°17'2 3.8
2018-Apr-17 12:30N 36°50' W 076°17'0 0.0
2018-Apr-17 12:00N 36°50' W 076°17'0 0.0
2018-Apr-17 11:30N 36°50' W 076°17'0 0.0
2018-Apr-17 11:00N 36°50' W 076°17'0 0.0
2018-Apr-17 10:31N 36°50' W 076°17'0 0.0
2018-Apr-17 10:00N 36°50' W 076°17'0 0.0
2018-Apr-17 09:30N 36°50' W 076°17'0 0.0
2018-Apr-17 09:01N 36°50' W 076°17'0 0.0
2018-Apr-17 08:30N 36°50' W 076°17'0 0.0
2018-Apr-17 08:00N 36°50' W 076°17'0 0.0
2018-Apr-17 07:30N 36°50' W 076°17'0 0.0
2018-Apr-17 07:01N 36°50' W 076°17'0 0.0
2018-Apr-17 06:30N 36°50' W 076°17'0 0.0
2018-Apr-17 06:00N 36°50' W 076°17'0 0.0
2018-Apr-17 05:31N 36°50' W 076°17'0 0.0
2018-Apr-17 05:00N 36°50' W 076°17'0 0.0
2018-Apr-17 04:31N 36°50' W 076°17'0 0.0
2018-Apr-17 04:00N 36°50' W 076°17'0 0.0
2018-Apr-17 03:30N 36°50' W 076°17'0 0.0
2018-Apr-17 03:00N 36°50' W 076°17'0 0.0
2018-Apr-17 02:30N 36°50' W 076°17'0 0.0
2018-Apr-17 02:00N 36°50' W 076°17'0 0.0
2018-Apr-17 01:28N 36°50' W 076°17'0 0.0
2018-Apr-17 01:00N 36°50' W 076°17'0 0.0
2018-Apr-17 00:30N 36°50' W 076°17'0 0.0
2018-Apr-17 00:01N 36°50' W 076°17'0 0.0
2018-Apr-16 23:30N 36°50' W 076°17'0 0.0
2018-Apr-16 23:00N 36°50' W 076°17'0 0.0
2018-Apr-16 22:30N 36°50' W 076°17'0 0.0
2018-Apr-16 22:00N 36°50' W 076°17'0 0.0
2018-Apr-16 21:30N 36°50' W 076°17'0 0.0
2018-Apr-16 21:00N 36°50' W 076°17'0 0.0
2018-Apr-16 20:30N 36°50' W 076°17'0 0.0
2018-Apr-16 20:00N 36°50' W 076°17'0 0.0
2018-Apr-16 19:30N 36°50' W 076°17'0 0.0
2018-Apr-16 19:01N 36°50' W 076°17'0 0.0
2018-Apr-16 18:29N 36°50' W 076°17'0 0.0
2018-Apr-16 17:21N 36°50' W 076°17'0 0.0
2018-Apr-16 16:52N 36°50' W 076°17'0 0.0
2018-Apr-16 16:29N 36°50' W 076°17'0 0.0
2018-Apr-16 16:00N 36°50' W 076°17'0 0.0
2018-Apr-16 15:08N 36°50' W 076°17'0 0.0
2018-Apr-16 15:00N 36°50' W 076°17'0 0.0
2018-Apr-16 14:30N 36°50' W 076°17'0 0.0
2018-Apr-16 14:00N 36°50' W 076°17'0 0.0
2018-Apr-16 13:25N 36°50' W 076°17'0 0.0
2018-Apr-16 13:00N 36°50' W 076°17'0 0.0
2018-Apr-16 12:28N 36°50' W 076°17'0 0.0
2018-Apr-16 12:00N 36°50' W 076°17'0 0.0
2018-Apr-16 11:30N 36°50' W 076°17'0 0.0
2018-Apr-16 10:59N 36°50' W 076°17'0 0.0
2018-Apr-16 10:11N 36°50' W 076°17'0 0.0
2018-Apr-16 10:00N 36°50' W 076°17'0 0.0
2018-Apr-16 09:30N 36°50' W 076°17'0 0.0
2018-Apr-16 09:00N 36°50' W 076°17'0 0.0
2018-Apr-16 08:30N 36°50' W 076°17'  
Track history (hours):
 
Tides and Currents Weather Stations Pressure Air Temp Water Temp Dewpoint Dewpoint Depression Visibility Wind Speed Wind Dir Waves Ship Positions

North Star State

Owner: Great Lakes Dredge & Dock Company, LLC., Oak Brook, IL. More information available from US FCC via Universal Licensing System and Coast Guard Vessel Documentation Center.

Last reported at 2018-Apr-26 08:22 UTC. Time now 2018-Apr-26 11:28 UTC.
Position N 36°57' W 076°20'.

MMSI: 367186210.

Date/timePositionNaut miles runAvg speedWind from/ knotsBaromVisibWave heightAir tempDewpointWater temp
2018-Apr-26 08:22N 36°57' W 076°20'4 3.4
2018-Apr-26 07:16N 36°53' W 076°20'1 3.7
2018-Apr-26 06:59N 36°52' W 076°19'2 3.2
2018-Apr-26 06:30N 36°51' W 076°18'1 2.7
2018-Apr-26 06:00N 36°50' W 076°16'0 0.6
2018-Apr-26 05:30N 36°50' W 076°16'0 0.0
2018-Apr-26 04:25N 36°50' W 076°16'0 0.0
2018-Apr-26 04:00N 36°50' W 076°16'1 2.2
2018-Apr-26 03:30N 36°50' W 076°17'0 0.1
2018-Apr-26 03:00N 36°50' W 076°17'0 0.0
2018-Apr-26 01:58N 36°50' W 076°17'0 0.0
2018-Apr-25 23:54N 36°50' W 076°17'0 0.0
2018-Apr-25 23:14N 36°50' W 076°17'2 7.0
2018-Apr-25 23:00N 36°51' W 076°19'10 3.7
2018-Apr-25 20:17N 36°56' W 076°07'11 2.3
2018-Apr-25 15:33N 36°53' W 076°20'2 5.4
2018-Apr-25 15:13N 36°51' W 076°18'1 3.5
2018-Apr-25 15:00N 36°51' W 076°18'2 4.7
2018-Apr-25 14:31N 36°48' W 076°17'2 3.6
2018-Apr-25 14:00N 36°47' W 076°18'1 1.1
2018-Apr-25 13:30N 36°46' W 076°18'1 2.1
2018-Apr-25 13:01N 36°47' W 076°18'3 6.3
2018-Apr-25 12:30N 36°50' W 076°18'0 0.2
2018-Apr-25 12:00N 36°50' W 076°17'0 0.0
2018-Apr-25 11:30N 36°50' W 076°17'0 0.0
2018-Apr-25 11:00N 36°50' W 076°17'0 0.0
2018-Apr-25 10:30N 36°50' W 076°17'0 0.0
2018-Apr-25 10:00N 36°50' W 076°17'0 0.0
2018-Apr-25 09:30N 36°50' W 076°17'0 0.0
2018-Apr-25 09:00N 36°50' W 076°17'0 0.0
2018-Apr-25 08:31N 36°50' W 076°17'0 0.0
2018-Apr-25 08:00N 36°50' W 076°17'0 0.0
2018-Apr-25 07:30N 36°50' W 076°17'0 0.0
2018-Apr-25 07:01N 36°50' W 076°17'0 0.0
2018-Apr-25 06:30N 36°50' W 076°17'0 0.0
2018-Apr-25 06:00N 36°50' W 076°17'0 0.0
2018-Apr-25 05:30N 36°50' W 076°17'0 0.0
2018-Apr-25 05:00N 36°50' W 076°17'0 0.0
2018-Apr-25 04:31N 36°50' W 076°17'0 0.0
2018-Apr-25 04:00N 36°50' W 076°17'0 0.0
2018-Apr-25 03:30N 36°50' W 076°17'0 0.0
2018-Apr-25 03:00N 36°50' W 076°17'0 0.0
2018-Apr-25 02:30N 36°50' W 076°17'0 0.0
2018-Apr-25 02:00N 36°50' W 076°17'0 0.0
2018-Apr-25 01:30N 36°50' W 076°17'0 0.0
2018-Apr-25 01:00N 36°50' W 076°17'0 0.0
2018-Apr-25 00:31N 36°50' W 076°17'0 0.0
2018-Apr-25 00:00N 36°50' W 076°17'0 0.0
2018-Apr-24 23:30N 36°50' W 076°17'0 0.0
2018-Apr-24 23:00N 36°50' W 076°17'0 0.0
2018-Apr-24 22:31N 36°50' W 076°17'0 0.0
2018-Apr-24 22:00N 36°50' W 076°17'0 0.0
2018-Apr-24 21:30N 36°50' W 076°17'0 0.0
2018-Apr-24 21:01N 36°50' W 076°17'0 0.0
2018-Apr-24 20:31N 36°50' W 076°17'0 0.0
2018-Apr-24 20:00N 36°50' W 076°17'0 0.0
2018-Apr-24 19:30N 36°50' W 076°17'0 0.0
2018-Apr-24 19:00N 36°50' W 076°17'0 0.0
2018-Apr-24 18:30N 36°50' W 076°17'0 0.0
2018-Apr-24 18:00N 36°50' W 076°17'0 0.0
2018-Apr-24 17:30N 36°50' W 076°17'0 0.0
2018-Apr-24 17:00N 36°50' W 076°17'0 0.0
2018-Apr-24 16:30N 36°50' W 076°17'0 0.0
2018-Apr-24 16:00N 36°50' W 076°17'0 0.0
2018-Apr-24 15:30N 36°50' W 076°17'0 0.0
2018-Apr-24 15:00N 36°50' W 076°17'0 0.0
2018-Apr-24 14:30N 36°50' W 076°17'0 0.0
2018-Apr-24 14:01N 36°50' W 076°17'0 0.0
2018-Apr-24 13:31N 36°50' W 076°17'0 0.0
2018-Apr-24 13:00N 36°50' W 076°17'0 0.0
2018-Apr-24 12:30N 36°50' W 076°17'0 0.0
2018-Apr-24 12:00N 36°50' W 076°17'0 0.0
2018-Apr-24 11:30N 36°50' W 076°17'0 0.0
2018-Apr-24 11:00N 36°50' W 076°17'0 0.0
2018-Apr-24 10:30N 36°50' W 076°17'0 0.0
2018-Apr-24 10:00N 36°50' W 076°17'0 0.0
2018-Apr-24 09:30N 36°50' W 076°17'0 0.0
2018-Apr-24 09:01N 36°50' W 076°17'0 0.0
2018-Apr-24 08:31N 36°50' W 076°17'0 0.0
2018-Apr-24 08:00N 36°50' W 076°17'0 0.0
2018-Apr-24 07:30N 36°50' W 076°17'0 0.0
2018-Apr-24 07:00N 36°50' W 076°17'0 0.0
2018-Apr-24 06:30N 36°50' W 076°17'0 0.0
2018-Apr-24 06:00N 36°50' W 076°17'0 0.0
2018-Apr-24 05:30N 36°50' W 076°17'0 0.0
2018-Apr-24 05:00N 36°50' W 076°17'0 0.0
2018-Apr-24 04:30N 36°50' W 076°17'0 0.0
2018-Apr-24 04:00N 36°50' W 076°17'0 0.0
2018-Apr-24 03:31N 36°50' W 076°17'0 0.0
2018-Apr-24 03:00N 36°50' W 076°17'0 0.0
2018-Apr-24 02:30N 36°50' W 076°17'0 0.0
2018-Apr-24 02:01N 36°50' W 076°17'0 0.0
2018-Apr-24 01:30N 36°50' W 076°17'0 0.0
2018-Apr-24 01:00N 36°50' W 076°17'0 0.0
2018-Apr-24 00:30N 36°50' W 076°17'0 0.0
2018-Apr-24 00:00N 36°50' W 076°17'0 0.0
2018-Apr-23 23:30N 36°50' W 076°17'0 0.0
2018-Apr-23 23:01N 36°50' W 076°17'0 0.0
2018-Apr-23 22:30N 36°50' W 076°17'0 0.0
2018-Apr-23 22:00N 36°50' W 076°17'0 0.0
2018-Apr-23 21:30N 36°50' W 076°17'0 0.0
2018-Apr-23 21:00N 36°50' W 076°17'0 0.0
2018-Apr-23 20:30N 36°50' W 076°17'0 0.0
2018-Apr-23 20:00N 36°50' W 076°17'0 0.0
2018-Apr-23 19:30N 36°50' W 076°17'0 0.0
2018-Apr-23 19:00N 36°50' W 076°17'0 0.0
2018-Apr-23 18:30N 36°50' W 076°17'0 0.0
2018-Apr-23 18:00N 36°50' W 076°17'0 0.0
2018-Apr-23 17:30N 36°50' W 076°17'0 0.0
2018-Apr-23 17:00N 36°50' W 076°17'0 0.0
2018-Apr-23 16:30N 36°50' W 076°17'0 0.0
2018-Apr-23 16:00N 36°50' W 076°17'0 0.0
2018-Apr-23 15:30N 36°50' W 076°17'0 0.0
2018-Apr-23 14:59N 36°50' W 076°17'0 0.0
2018-Apr-23 14:26N 36°50' W 076°17'0 0.0
2018-Apr-23 14:00N 36°50' W 076°17'0 0.0
2018-Apr-23 13:30N 36°50' W 076°17'0 0.0
2018-Apr-23 13:00N 36°50' W 076°17'0 0.0
2018-Apr-23 12:31N 36°50' W 076°17'0 0.0
2018-Apr-23 12:00N 36°50' W 076°17'0 0.0
2018-Apr-23 11:30N 36°50' W 076°17'0 0.0
2018-Apr-23 11:00N 36°50' W 076°17'0 0.0
2018-Apr-23 10:30N 36°50' W 076°17'0 0.0
2018-Apr-23 10:00N 36°50' W 076°17'0 0.0
2018-Apr-23 09:30N 36°50' W 076°17'0 0.0
2018-Apr-23 09:00N 36°50' W 076°17'0 0.0
2018-Apr-23 08:30N 36°50' W 076°17'0 0.0
2018-Apr-23 08:00N 36°50' W 076°17'0 0.0
2018-Apr-23 07:30N 36°50' W 076°17'0 0.0
2018-Apr-23 07:00N 36°50' W 076°17'0 0.0
2018-Apr-23 06:30N 36°50' W 076°17'0 0.0
2018-Apr-23 06:01N 36°50' W 076°17'0 0.0
2018-Apr-23 05:30N 36°50' W 076°17'0 0.0
2018-Apr-23 05:00N 36°50' W 076°17'0 0.0
2018-Apr-23 04:30N 36°50' W 076°17'0 0.0
2018-Apr-23 04:00N 36°50' W 076°17'0 0.0
2018-Apr-23 03:29N 36°50' W 076°17'0 0.0
2018-Apr-23 00:27N 36°50' W 076°17'0 0.0
2018-Apr-23 00:00N 36°50' W 076°17'0 0.0
2018-Apr-22 23:30N 36°50' W 076°17'0 0.0
2018-Apr-22 23:01N 36°50' W 076°17'0 0.0
2018-Apr-22 22:30N 36°50' W 076°17'0 0.0
2018-Apr-22 22:01N 36°50' W 076°17'0 0.0
2018-Apr-22 21:30N 36°50' W 076°17'0 0.0
2018-Apr-22 21:00N 36°50' W 076°17'0 0.0
2018-Apr-22 20:29N 36°50' W 076°17'0 0.0
2018-Apr-22 19:59N 36°50' W 076°17'0 0.0
2018-Apr-22 19:30N 36°50' W 076°17'0 0.0
2018-Apr-22 19:00N 36°50' W 076°17'0 0.0
2018-Apr-22 18:30N 36°50' W 076°17'0 0.0
2018-Apr-22 18:00N 36°50' W 076°17'0 0.0
2018-Apr-22 17:30N 36°50' W 076°17'0 0.0
2018-Apr-22 17:00N 36°50' W 076°17'0 0.0
2018-Apr-22 16:30N 36°50' W 076°17'0 0.0
2018-Apr-22 16:00N 36°50' W 076°17'0 0.0
2018-Apr-22 15:30N 36°50' W 076°17'0 0.0
2018-Apr-22 14:59N 36°50' W 076°17'0 0.0
2018-Apr-22 14:30N 36°50' W 076°17'0 0.0
2018-Apr-22 14:00N 36°50' W 076°17'0 0.0
2018-Apr-22 13:30N 36°50' W 076°17'0 0.0
2018-Apr-22 13:00N 36°50' W 076°17'0 0.0
2018-Apr-22 12:30N 36°50' W 076°17'0 0.0
2018-Apr-22 12:00N 36°50' W 076°17'0 0.0
2018-Apr-22 11:30N 36°50' W 076°17'0 0.0
2018-Apr-22 11:00N 36°50' W 076°17'0 0.0
2018-Apr-22 10:30N 36°50' W 076°17'0 0.0
2018-Apr-22 10:00N 36°50' W 076°17'0 0.0
2018-Apr-22 09:30N 36°50' W 076°17'0 0.0
2018-Apr-22 09:00N 36°50' W 076°17'0 0.0
2018-Apr-22 08:30N 36°50' W 076°17'0 0.0
2018-Apr-22 08:00N 36°50' W 076°17'0 0.0
2018-Apr-22 07:30N 36°50' W 076°17'0 0.0
2018-Apr-22 07:00N 36°50' W 076°17'0 0.0
2018-Apr-22 06:30N 36°50' W 076°17'0 0.0
2018-Apr-22 06:00N 36°50' W 076°17'0 0.0
2018-Apr-22 05:30N 36°50' W 076°17'0 0.0
2018-Apr-22 05:00N 36°50' W 076°17'0 0.0
2018-Apr-22 04:30N 36°50' W 076°17'0 0.0
2018-Apr-22 04:00N 36°50' W 076°17'0 0.0
2018-Apr-22 03:30N 36°50' W 076°17'0 0.0
2018-Apr-22 03:01N 36°50' W 076°17'0 0.0
2018-Apr-22 02:30N 36°50' W 076°17'0 0.0
2018-Apr-22 02:00N 36°50' W 076°17'0 0.0
2018-Apr-22 01:30N 36°50' W 076°17'0 0.0
2018-Apr-22 01:00N 36°50' W 076°17'0 0.0
2018-Apr-22 00:30N 36°50' W 076°17'0 0.0
2018-Apr-22 00:00N 36°50' W 076°17'0 0.0
2018-Apr-21 23:30N 36°50' W 076°17'0 0.0
2018-Apr-21 23:00N 36°50' W 076°17'0 0.0
2018-Apr-21 22:30N 36°50' W 076°17'0 0.0
2018-Apr-21 22:00N 36°50' W 076°17'0 0.0
2018-Apr-21 21:30N 36°50' W 076°17'0 0.0
2018-Apr-21 21:00N 36°50' W 076°17'0 0.0
2018-Apr-21 20:30N 36°50' W 076°17'0 0.0
2018-Apr-21 20:00N 36°50' W 076°17'0 0.0
2018-Apr-21 19:30N 36°50' W 076°17'0 0.0
2018-Apr-21 19:00N 36°50' W 076°17'0 0.0
2018-Apr-21 18:31N 36°50' W 076°17'0 0.0
2018-Apr-21 18:00N 36°50' W 076°17'0 0.0
2018-Apr-21 17:30N 36°50' W 076°17'0 0.0
2018-Apr-21 17:00N 36°50' W 076°17'0 0.0
2018-Apr-21 16:31N 36°50' W 076°17'0 0.0
2018-Apr-21 16:00N 36°50' W 076°17'0 0.0
2018-Apr-21 15:30N 36°50' W 076°17'0 0.0
2018-Apr-21 15:01N 36°50' W 076°17'0 0.0
2018-Apr-21 14:30N 36°50' W 076°17'0 0.0
2018-Apr-21 13:59N 36°50' W 076°17'0 0.0
2018-Apr-21 13:30N 36°50' W 076°17'0 0.0
2018-Apr-21 13:00N 36°50' W 076°17'0 0.0
2018-Apr-21 12:30N 36°50' W 076°17'0 0.0
2018-Apr-21 12:00N 36°50' W 076°17'0 0.0
2018-Apr-21 11:30N 36°50' W 076°17'0 0.0
2018-Apr-21 11:00N 36°50' W 076°17'0 0.0
2018-Apr-21 10:30N 36°50' W 076°17'0 0.0
2018-Apr-21 10:00N 36°50' W 076°17'0 0.0
2018-Apr-21 09:30N 36°50' W 076°17'0 0.0
2018-Apr-21 09:00N 36°50' W 076°17'0 0.0
2018-Apr-21 08:30N 36°50' W 076°17'0 0.0
2018-Apr-21 08:00N 36°50' W 076°17'0 0.0
2018-Apr-21 07:30N 36°50' W 076°17'0 0.0
2018-Apr-21 07:00N 36°50' W 076°17'0 0.0
2018-Apr-21 06:31N 36°50' W 076°17'0 0.0
2018-Apr-21 06:00N 36°50' W 076°17'0 0.0
2018-Apr-21 05:30N 36°50' W 076°17'0 0.0
2018-Apr-21 05:00N 36°50' W 076°17'0 0.0
2018-Apr-21 04:30N 36°50' W 076°17'0 0.0
2018-Apr-21 04:01N 36°50' W 076°17'0 0.0
2018-Apr-21 03:30N 36°50' W 076°17'0 0.0
2018-Apr-21 03:00N 36°50' W 076°17'0 0.0
2018-Apr-21 02:30N 36°50' W 076°17'0 0.0
2018-Apr-21 02:00N 36°50' W 076°17'0 0.0
2018-Apr-21 01:30N 36°50' W 076°17'0 0.0
2018-Apr-21 01:00N 36°50' W 076°17'0 0.0
2018-Apr-21 00:31N 36°50' W 076°17'0 0.0
2018-Apr-21 00:00N 36°50' W 076°17'0 0.0
2018-Apr-20 23:30N 36°50' W 076°17'0 0.0
2018-Apr-20 23:00N 36°50' W 076°17'0 0.0
2018-Apr-20 22:30N 36°50' W 076°17'0 0.0
2018-Apr-20 22:00N 36°50' W 076°17'0 0.0
2018-Apr-20 21:29N 36°50' W 076°17'0 0.0
2018-Apr-20 21:00N 36°50' W 076°17'0 0.0
2018-Apr-20 20:29N 36°50' W 076°17'0 0.0
2018-Apr-20 20:00N 36°50' W 076°17'0 0.0
2018-Apr-20 19:31N 36°50' W 076°17'1 1.5
2018-Apr-20 19:01N 36°50' W 076°17'0 0.1
2018-Apr-20 18:29N 36°50' W 076°17'0 0.2
2018-Apr-20 17:56N 36°50' W 076°16'0 0.4
2018-Apr-20 17:10N 36°51' W 076°16'0 0.1
2018-Apr-20 17:00N 36°51' W 076°16'1 2.3
2018-Apr-20 16:30N 36°50' W 076°17'0 0.0
2018-Apr-20 15:39N 36°50' W 076°17'0 0.0
2018-Apr-20 15:17N 36°50' W 076°17'0 0.0
2018-Apr-20 15:00N 36°50' W 076°17'0 0.0
2018-Apr-20 14:30N 36°50' W 076°17'0 0.0
2018-Apr-20 14:00N 36°50' W 076°17'0 0.0
2018-Apr-20 13:30N 36°50' W 076°17'1 1.1
2018-Apr-20 12:59N 36°50' W 076°17'0 0.5
2018-Apr-20 12:31N 36°50' W 076°17'4 0.1
2018-Apr-19 08:34N 36°53' W 076°20'1 7.6
2018-Apr-19 08:30N 36°53' W 076°20'3 6.6
2018-Apr-19 08:00N 36°50' W 076°17'0 0.0
2018-Apr-19 07:31N 36°50' W 076°17'0 0.0
2018-Apr-19 07:01N 36°50' W 076°17'0 0.0
2018-Apr-19 06:31N 36°50' W 076°17'0 0.0
2018-Apr-19 06:01N 36°50' W 076°17'0 0.0
2018-Apr-19 05:31N 36°50' W 076°17'0 0.0
2018-Apr-19 05:00N 36°50' W 076°17'0 0.0
2018-Apr-19 04:30N 36°50' W 076°17'0 0.0
2018-Apr-19 04:00N 36°50' W 076°17'0 0.0
2018-Apr-19 03:31N 36°50' W 076°17'0 0.0
2018-Apr-19 03:01N 36°50' W 076°17'0 0.0
2018-Apr-19 02:31N 36°50' W 076°17'0 0.0
2018-Apr-19 02:01N 36°50' W 076°17'0 0.0
2018-Apr-19 01:31N 36°50' W 076°17'0 0.0
2018-Apr-19 01:01N 36°50' W 076°17'0 0.0
2018-Apr-19 00:31N 36°50' W 076°17'0 0.0
2018-Apr-19 00:00N 36°50' W 076°17'0 0.0
2018-Apr-18 23:30N 36°50' W 076°17'0 0.0
2018-Apr-18 23:01N 36°50' W 076°17'1 1.6
2018-Apr-18 22:30N 36°51' W 076°18'2 3.7
2018-Apr-18 21:54N 36°53' W 076°20'2 3.6
2018-Apr-18 21:24N 36°51' W 076°18'2 4.1
2018-Apr-18 21:00N 36°50' W 076°18'2 3.1
2018-Apr-18 20:30N 36°48' W 076°17'2 3.1
2018-Apr-18 20:00N 36°47' W 076°18'1 1.9
2018-Apr-18 19:30N 36°46' W 076°18'0 0.4
2018-Apr-18 19:00N 36°46' W 076°18'0 0.5
2018-Apr-18 18:30N 36°46' W 076°18'0 0.3
2018-Apr-18 18:00N 36°46' W 076°18'0 0.0
2018-Apr-18 17:30N 36°46' W 076°18'0 0.0
2018-Apr-18 17:00N 36°46' W 076°18'0 0.1
2018-Apr-18 16:30N 36°46' W 076°18'0 0.2
2018-Apr-18 16:00N 36°46' W 076°18'0 0.0
2018-Apr-18 15:30N 36°46' W 076°18'0 0.7
2018-Apr-18 15:00N 36°46' W 076°18'0 0.7
2018-Apr-18 14:30N 36°46' W 076°18'0 0.2
2018-Apr-18 14:00N 36°46' W 076°18'0 0.0
2018-Apr-18 13:30N 36°46' W 076°18'0 0.0
2018-Apr-18 13:00N 36°46' W 076°18'0 0.0
2018-Apr-18 12:30N 36°46' W 076°18'0 0.1
2018-Apr-18 12:00N 36°46' W 076°18'0 0.3
2018-Apr-18 11:30N 36°46' W 076°18'1 1.6
2018-Apr-18 11:00N 36°45' W 076°18'0 0.0
2018-Apr-18 10:30N 36°45' W 076°18'0 0.0
2018-Apr-18 10:00N 36°45' W 076°18'2 4.1
2018-Apr-18 09:30N 36°47' W 076°18'3 5.8
2018-Apr-18 09:00N 36°50' W 076°18'0 0.2
2018-Apr-18 08:30N 36°50' W 076°17'0 0.0
2018-Apr-18 08:00N 36°50' W 076°17'0 0.0
2018-Apr-18 07:30N 36°50' W 076°17'0 0.0
2018-Apr-18 07:00N 36°50' W 076°17'0 0.0
2018-Apr-18 06:30N 36°50' W 076°17'0 0.0
2018-Apr-18 06:00N 36°50' W 076°17'0 0.0
2018-Apr-18 05:30N 36°50' W 076°17'0 0.0
2018-Apr-18 05:00N 36°50' W 076°17'0 0.0
2018-Apr-18 04:30N 36°50' W 076°17'0 0.0
2018-Apr-18 04:00N 36°50' W 076°17'0 0.0
2018-Apr-18 03:30N 36°50' W 076°17'0 0.0
2018-Apr-18 03:00N 36°50' W 076°17'0 0.0
2018-Apr-18 02:30N 36°50' W 076°17'0 0.0
2018-Apr-18 02:00N 36°50' W 076°17'0 0.0
2018-Apr-18 01:30N 36°50' W 076°17'0 0.0
2018-Apr-18 01:00N 36°50' W 076°17'0 0.0
2018-Apr-18 00:30N 36°50' W 076°17'0 0.0
2018-Apr-18 00:00N 36°50' W 076°17'0 0.0
2018-Apr-17 23:30N 36°50' W 076°17'0 0.0
2018-Apr-17 23:00N 36°50' W 076°17'0 0.0
2018-Apr-17 22:30N 36°50' W 076°17'0 0.0
2018-Apr-17 22:00N 36°50' W 076°17'0 0.0
2018-Apr-17 21:30N 36°50' W 076°17'0 0.0
2018-Apr-17 21:00N 36°50' W 076°17'0 0.0
2018-Apr-17 20:30N 36°50' W 076°17'0 0.0
2018-Apr-17 20:00N 36°50' W 076°17'0 0.0
2018-Apr-17 19:30N 36°50' W 076°17'0 0.0
2018-Apr-17 19:00N 36°50' W 076°17'0 0.5
2018-Apr-17 18:30N 36°50' W 076°18'1 2.4
2018-Apr-17 17:59N 36°50' W 076°16'0 0.9
2018-Apr-17 17:30N 36°50' W 076°17'1 1.6
2018-Apr-17 17:00N 36°50' W 076°18'1 2.9
2018-Apr-17 16:30N 36°49' W 076°17'1 2.9
2018-Apr-17 16:00N 36°48' W 076°18'1 2.0
2018-Apr-17 15:30N 36°47' W 076°18'1 1.2
2018-Apr-17 15:00N 36°46' W 076°18'0 0.6
2018-Apr-17 14:30N 36°46' W 076°18'0 0.0
2018-Apr-17 14:00N 36°46' W 076°18'1 1.7
2018-Apr-17 13:30N 36°47' W 076°18'2 3.6
2018-Apr-17 13:00N 36°48' W 076°17'2 3.8
2018-Apr-17 12:30N 36°50' W 076°17'0 0.0
2018-Apr-17 12:00N 36°50' W 076°17'0 0.0
2018-Apr-17 11:30N 36°50' W 076°17'0 0.0
2018-Apr-17 11:00N 36°50' W 076°17'0 0.0
2018-Apr-17 10:31N 36°50' W 076°17'0 0.0
2018-Apr-17 10:00N 36°50' W 076°17'0 0.0
2018-Apr-17 09:30N 36°50' W 076°17'0 0.0
2018-Apr-17 09:01N 36°50' W 076°17'0 0.0
2018-Apr-17 08:30N 36°50' W 076°17'0 0.0
2018-Apr-17 08:00N 36°50' W 076°17'0 0.0
2018-Apr-17 07:30N 36°50' W 076°17'0 0.0
2018-Apr-17 07:01N 36°50' W 076°17'0 0.0
2018-Apr-17 06:30N 36°50' W 076°17'0 0.0
2018-Apr-17 06:00N 36°50' W 076°17'0 0.0
2018-Apr-17 05:31N 36°50' W 076°17'0 0.0
2018-Apr-17 05:00N 36°50' W 076°17'0 0.0
2018-Apr-17 04:31N 36°50' W 076°17'0 0.0
2018-Apr-17 04:00N 36°50' W 076°17'0 0.0
2018-Apr-17 03:30N 36°50' W 076°17'0 0.0
2018-Apr-17 03:00N 36°50' W 076°17'0 0.0
2018-Apr-17 02:30N 36°50' W 076°17'0 0.0
2018-Apr-17 02:00N 36°50' W 076°17'0 0.0
2018-Apr-17 01:28N 36°50' W 076°17'0 0.0
2018-Apr-17 01:00N 36°50' W 076°17'0 0.0
2018-Apr-17 00:30N 36°50' W 076°17'0 0.0
2018-Apr-17 00:01N 36°50' W 076°17'0 0.0
2018-Apr-16 23:30N 36°50' W 076°17'0 0.0
2018-Apr-16 23:00N 36°50' W 076°17'0 0.0
2018-Apr-16 22:30N 36°50' W 076°17'0 0.0
2018-Apr-16 22:00N 36°50' W 076°17'0 0.0
2018-Apr-16 21:30N 36°50' W 076°17'0 0.0
2018-Apr-16 21:00N 36°50' W 076°17'0 0.0
2018-Apr-16 20:30N 36°50' W 076°17'0 0.0
2018-Apr-16 20:00N 36°50' W 076°17'0 0.0
2018-Apr-16 19:30N 36°50' W 076°17'0 0.0
2018-Apr-16 19:01N 36°50' W 076°17'0 0.0
2018-Apr-16 18:29N 36°50' W 076°17'0 0.0
2018-Apr-16 17:21N 36°50' W 076°17'0 0.0
2018-Apr-16 16:52N 36°50' W 076°17'0 0.0
2018-Apr-16 16:29N 36°50' W 076°17'0 0.0
2018-Apr-16 16:00N 36°50' W 076°17'0 0.0
2018-Apr-16 15:08N 36°50' W 076°17'0 0.0
2018-Apr-16 15:00N 36°50' W 076°17'0 0.0
2018-Apr-16 14:30N 36°50' W 076°17'0 0.0
2018-Apr-16 14:00N 36°50' W 076°17'0 0.0
2018-Apr-16 13:25N 36°50' W 076°17'0 0.0
2018-Apr-16 13:00N 36°50' W 076°17'0 0.0
2018-Apr-16 12:28N 36°50' W 076°17'0 0.0
2018-Apr-16 12:00N 36°50' W 076°17'0 0.0
2018-Apr-16 11:30N 36°50' W 076°17'0 0.0
2018-Apr-16 10:59N 36°50' W 076°17'0 0.0
2018-Apr-16 10:11N 36°50' W 076°17'0 0.0
2018-Apr-16 10:00N 36°50' W 076°17'0 0.0
2018-Apr-16 09:30N 36°50' W 076°17'0 0.0
2018-Apr-16 09:00N 36°50' W 076°17'0 0.0
2018-Apr-16 08:30N 36°50' W 076°17'  

Dump ship's entire track history